createdAt,value
2023-01-05T00:01:54.301Z,28.08
2023-01-05T00:04:22.925Z,26.85
2023-01-05T00:06:50.720Z,27.55
2023-01-05T00:09:19.681Z,24.63
2023-01-05T00:12:08.798Z,24.60
2023-01-05T00:14:56.038Z,24.63
2023-01-05T00:17:43.567Z,23.05
2023-01-05T00:20:36.303Z,23.00
2023-01-05T00:23:04.847Z,21.45
2023-01-05T00:25:38.242Z,23.15
2023-01-05T00:28:06.883Z,19.90
2023-01-05T00:30:42.632Z,20.95
2023-01-05T00:33:13.337Z,21.83
2023-01-05T00:35:42.366Z,21.17
2023-01-05T00:38:10.881Z,18.98
2023-01-05T00:40:40.240Z,20.55
2023-01-05T00:43:07.964Z,20.20
2023-01-05T00:45:36.190Z,21.20
2023-01-05T00:48:04.222Z,20.20
2023-01-05T00:50:32.113Z,20.55
2023-01-05T00:53:02.261Z,18.85
2023-01-05T00:55:30.254Z,17.40
2023-01-05T00:57:57.855Z,17.05
2023-01-05T01:00:25.874Z,15.60
2023-01-05T01:02:53.848Z,15.77
2023-01-05T01:05:22.043Z,17.45
2023-01-05T01:07:51.218Z,16.38
2023-01-05T01:10:20.185Z,17.40
2023-01-05T01:12:47.786Z,18.15
2023-01-05T01:15:15.640Z,18.13
2023-01-05T01:17:43.207Z,16.88
2023-01-05T01:20:11.307Z,17.92
2023-01-05T01:22:39.464Z,19.30
2023-01-05T01:25:09.264Z,20.85
2023-01-05T01:27:36.864Z,17.50
2023-01-05T01:30:05.552Z,17.88
2023-01-05T01:32:33.211Z,17.60
2023-01-05T01:35:02.461Z,17.80
2023-01-05T01:37:30.506Z,17.73
2023-01-05T01:39:59.008Z,17.20
2023-01-05T01:42:27.213Z,16.90
2023-01-05T01:45:02.380Z,17.95
2023-01-05T01:47:49.299Z,16.35
2023-01-05T01:50:34.975Z,17.42
2023-01-05T01:53:08.103Z,17.13
2023-01-05T01:55:37.251Z,15.32
2023-01-05T01:58:11.416Z,17.67
2023-01-05T02:00:41.796Z,16.27
2023-01-05T02:03:10.825Z,17.10
2023-01-05T02:05:39.272Z,16.33
2023-01-05T02:08:15.941Z,17.23
2023-01-05T02:11:37.208Z,17.27
2023-01-05T02:14:33.959Z,16.45
2023-01-05T02:17:23.258Z,16.25
2023-01-05T02:20:02.558Z,14.85
2023-01-05T02:23:02.406Z,16.17
2023-01-05T02:26:12.801Z,15.77
2023-01-05T02:29:16.573Z,15.63
2023-01-05T02:32:22.176Z,15.73
2023-01-05T02:35:14.124Z,18.30
2023-01-05T02:38:20.050Z,17.58
2023-01-05T02:40:54.529Z,16.73
2023-01-05T02:43:23.212Z,16.02
2023-01-05T02:45:51.230Z,16.08
2023-01-05T02:48:19.060Z,15.75
2023-01-05T02:51:01.579Z,17.67
2023-01-05T02:53:39.925Z,16.95
2023-01-05T02:56:21.094Z,16.38
2023-01-05T02:59:07.658Z,18.13
2023-01-05T03:01:47.644Z,17.92
2023-01-05T03:04:28.705Z,16.15
2023-01-05T03:07:06.678Z,18.55
2023-01-05T03:09:38.967Z,17.50
2023-01-05T03:12:53.689Z,16.98
2023-01-05T03:15:32.781Z,17.05
2023-01-05T03:18:08.010Z,17.63
2023-01-05T03:20:49.651Z,17.65
2023-01-05T03:23:40.040Z,16.42
2023-01-05T03:26:28.172Z,16.60
2023-01-05T03:29:21.129Z,18.10
2023-01-05T03:32:29.109Z,16.20
2023-01-05T03:35:32.912Z,17.48
2023-01-05T03:38:22.935Z,17.38
2023-01-05T03:40:58.403Z,16.40
2023-01-05T03:43:26.900Z,17.55
2023-01-05T03:45:57.857Z,17.65
2023-01-05T03:48:29.144Z,20.17
2023-01-05T03:50:57.279Z,19.67
2023-01-05T03:53:26.646Z,19.00
2023-01-05T03:55:55.163Z,19.98
2023-01-05T03:58:25.171Z,18.67
2023-01-05T04:00:53.534Z,16.35
2023-01-05T04:03:29.430Z,15.40
2023-01-05T04:06:00.519Z,15.15
2023-01-05T04:08:30.663Z,16.17
2023-01-05T04:11:15.465Z,15.48
2023-01-05T04:13:48.105Z,17.50
2023-01-05T04:16:17.474Z,15.90
2023-01-05T04:18:45.262Z,17.83
2023-01-05T04:21:16.095Z,15.48
2023-01-05T04:23:44.563Z,16.02
2023-01-05T04:26:12.598Z,16.00
2023-01-05T04:28:40.297Z,16.25
2023-01-05T04:31:11.004Z,15.57
2023-01-05T04:33:40.193Z,17.20
2023-01-05T04:36:09.065Z,16.90
2023-01-05T04:38:37.188Z,18.20
2023-01-05T04:41:07.252Z,17.73
2023-01-05T04:43:35.635Z,18.42
2023-01-05T04:46:04.286Z,18.83
2023-01-05T04:51:01.538Z,16.70
2023-01-05T04:53:33.691Z,17.75
2023-01-05T04:56:02.243Z,18.48
2023-01-05T04:58:34.741Z,17.52
2023-01-05T05:01:03.462Z,18.48
2023-01-05T05:03:33.759Z,16.73
2023-01-05T05:06:04.177Z,17.98
2023-01-05T05:08:32.842Z,17.98
2023-01-05T05:11:02.467Z,19.45
2023-01-05T05:13:32.240Z,18.30
2023-01-05T05:20:59.666Z,8.65
2023-01-05T05:23:32.036Z,8.57
2023-01-05T05:26:00.832Z,6.57
2023-01-05T05:28:31.142Z,11.25
2023-01-05T05:30:59.234Z,13.73
2023-01-05T05:33:26.877Z,16.27
2023-01-05T05:35:54.743Z,15.35
2023-01-05T05:38:22.320Z,16.38
2023-01-05T05:40:50.158Z,18.30
2023-01-05T05:43:17.679Z,22.95
2023-01-05T05:45:50.345Z,24.08
2023-01-05T05:48:19.417Z,25.42
2023-01-05T05:50:47.384Z,23.83
2023-01-05T05:53:14.905Z,24.45
2023-01-05T05:55:42.843Z,25.48
2023-01-05T05:58:10.461Z,26.05
2023-01-05T06:00:38.347Z,26.48
2023-01-05T06:03:06.015Z,24.13
2023-01-05T06:05:33.927Z,23.42
2023-01-05T06:08:02.101Z,24.05
2023-01-05T06:10:30.068Z,23.42
2023-01-05T06:12:58.163Z,22.20
2023-01-05T06:15:25.909Z,22.85
2023-01-05T06:17:53.467Z,21.60
2023-01-05T06:20:21.439Z,22.55
2023-01-05T06:22:48.991Z,23.13
2023-01-05T06:25:16.913Z,24.00
2023-01-05T06:27:44.696Z,22.15
2023-01-05T06:30:13.261Z,22.55
2023-01-05T06:32:40.999Z,23.85
2023-01-05T06:35:09.463Z,23.60
2023-01-05T06:37:37.162Z,25.00
2023-01-05T06:40:05.892Z,25.30
2023-01-05T06:42:33.539Z,27.02
2023-01-05T06:45:01.544Z,25.83
2023-01-05T06:47:29.059Z,26.38
2023-01-05T06:49:57.355Z,25.85
2023-01-05T06:52:25.051Z,24.83
2023-01-05T06:54:52.818Z,24.85
2023-01-05T06:57:20.355Z,24.40
2023-01-05T06:59:48.207Z,23.52
2023-01-05T07:02:17.694Z,22.70
2023-01-05T07:04:45.581Z,23.25
2023-01-05T07:07:16.497Z,24.02
2023-01-05T07:09:49.193Z,24.08
2023-01-05T07:12:17.508Z,23.73
2023-01-05T07:14:45.630Z,23.25
2023-01-05T07:17:13.355Z,26.58
2023-01-05T07:19:41.333Z,24.02
2023-01-05T07:22:08.941Z,27.20
2023-01-05T07:24:36.909Z,26.05
2023-01-05T07:27:09.569Z,25.70
2023-01-05T07:29:38.170Z,25.55
2023-01-05T07:32:06.213Z,24.48
2023-01-05T07:34:34.100Z,24.52
2023-01-05T07:37:01.720Z,26.02
2023-01-05T07:39:29.511Z,25.83
2023-01-05T07:41:57.038Z,25.15
2023-01-05T07:44:26.929Z,23.42
2023-01-05T07:46:54.949Z,23.30
2023-01-05T07:49:22.764Z,24.42
2023-01-05T07:51:50.292Z,24.55
2023-01-05T07:54:18.293Z,25.35
2023-01-05T07:56:45.796Z,24.13
2023-01-05T07:59:13.682Z,23.05
2023-01-05T08:01:41.329Z,23.55
2023-01-05T08:04:11.000Z,25.38
2023-01-05T08:06:38.497Z,23.45
2023-01-05T08:09:25.266Z,24.38
2023-01-05T08:11:52.839Z,23.02
2023-01-05T08:14:20.793Z,21.60
2023-01-05T08:16:48.606Z,22.42
2023-01-05T08:19:16.527Z,21.50
2023-01-05T08:21:44.089Z,21.25
2023-01-05T08:24:12.009Z,20.92
2023-01-05T08:26:39.914Z,22.27
2023-01-05T08:29:07.928Z,21.98
2023-01-05T08:31:37.709Z,22.67
2023-01-05T08:34:06.279Z,23.13
2023-01-05T08:36:35.009Z,22.63
2023-01-05T08:39:03.324Z,17.60
2023-01-05T08:41:36.942Z,22.75
2023-01-05T08:44:10.826Z,22.63
2023-01-05T08:46:38.809Z,28.90
2023-01-05T08:49:09.773Z,32.58
2023-01-05T08:51:38.493Z,31.20
2023-01-05T08:54:06.581Z,32.28
2023-01-05T08:56:38.678Z,29.08
2023-01-05T08:59:07.014Z,25.27
2023-01-05T09:01:34.665Z,24.92
2023-01-05T09:04:02.873Z,21.98
2023-01-05T09:06:30.474Z,21.38
2023-01-05T09:08:58.446Z,21.45
2023-01-05T09:11:26.563Z,22.58
2023-01-05T09:13:58.163Z,21.33
2023-01-05T09:19:17.728Z,21.27
2023-01-05T09:21:45.458Z,21.95
2023-01-05T09:24:13.373Z,20.20
2023-01-05T09:26:42.527Z,21.05
2023-01-05T09:31:42.062Z,20.83
2023-01-05T09:34:11.000Z,21.15
2023-01-05T09:36:41.648Z,23.48
2023-01-05T09:39:10.707Z,23.50
2023-01-05T09:41:50.277Z,21.05
2023-01-05T09:44:31.571Z,21.60
2023-01-05T09:47:26.187Z,21.67
2023-01-05T09:49:55.546Z,24.27
2023-01-05T09:52:23.304Z,24.00
2023-01-05T09:54:51.297Z,23.95
2023-01-05T09:57:30.824Z,23.88
2023-01-05T10:00:07.837Z,23.10
2023-01-05T10:03:13.004Z,23.73
2023-01-05T10:05:48.719Z,23.50
2023-01-05T10:08:40.423Z,25.15
2023-01-05T10:11:55.849Z,24.60
2023-01-05T10:14:33.922Z,25.25
2023-01-05T10:17:39.268Z,27.90
2023-01-05T10:19:55.844Z,28.77
2023-01-05T10:22:39.208Z,26.38
2023-01-05T10:25:32.336Z,26.35
2023-01-05T10:28:27.504Z,27.83
2023-01-05T10:30:59.559Z,29.25
2023-01-05T10:34:03.358Z,29.75
2023-01-05T10:40:46.924Z,28.67
2023-01-05T10:43:56.455Z,24.48
2023-01-05T10:46:38.150Z,23.80
2023-01-05T10:49:16.580Z,22.02
2023-01-05T10:51:45.403Z,21.85
2023-01-05T10:54:39.311Z,22.05
2023-01-05T10:57:34.016Z,21.33
2023-01-05T11:00:12.060Z,25.63
2023-01-05T11:03:07.785Z,27.20
2023-01-05T11:05:47.332Z,27.25
2023-01-05T11:08:25.663Z,28.10
2023-01-05T11:11:01.573Z,28.77
2023-01-05T11:13:42.620Z,28.35
2023-01-05T11:16:26.623Z,31.75
2023-01-05T11:19:13.860Z,32.50
2023-01-05T11:21:46.673Z,28.88
2023-01-05T11:24:34.870Z,31.75
2023-01-05T11:27:22.998Z,34.70
2023-01-05T11:30:25.506Z,33.28
2023-01-05T11:32:53.175Z,31.52
2023-01-05T11:35:44.154Z,31.35
2023-01-05T11:38:31.539Z,23.23
2023-01-05T11:41:01.194Z,18.95
2023-01-05T11:43:32.639Z,13.82
2023-01-05T11:46:04.789Z,8.75
2023-01-05T11:48:36.259Z,9.95
2023-01-05T11:51:04.568Z,9.52
2023-01-05T11:53:35.173Z,6.35
2023-01-05T11:56:22.093Z,3.10
2023-01-05T11:58:55.222Z,3.38
2023-01-05T12:01:41.781Z,4.10
2023-01-05T12:05:04.307Z,3.65
2023-01-05T12:07:36.503Z,2.42
2023-01-05T12:10:13.189Z,3.33
2023-01-05T12:12:50.399Z,3.72
2023-01-05T12:16:02.310Z,3.70
2023-01-05T12:19:44.147Z,2.63
2023-01-05T12:22:42.264Z,3.83
2023-01-05T12:25:32.786Z,4.67
2023-01-05T12:28:41.857Z,4.15
2023-01-05T12:35:01.100Z,3.83
2023-01-05T12:37:49.401Z,4.07
2023-01-05T12:40:44.219Z,2.55
2023-01-05T12:43:32.966Z,3.83
2023-01-05T12:46:07.063Z,4.10
2023-01-05T12:48:50.637Z,4.35
2023-01-05T12:51:34.332Z,3.47
2023-01-05T12:54:26.786Z,3.58
2023-01-05T12:57:09.439Z,2.53
2023-01-05T12:59:54.767Z,2.92
2023-01-05T13:02:32.387Z,3.30
2023-01-05T13:05:10.352Z,3.22
2023-01-05T13:07:59.164Z,4.00
2023-01-05T13:10:33.914Z,3.58
2023-01-05T13:13:13.540Z,3.47
2023-01-05T13:15:56.844Z,4.45
2023-01-05T13:18:26.939Z,4.13
2023-01-05T13:21:06.857Z,3.63
2023-01-05T13:23:44.356Z,3.97
2023-01-05T13:26:18.689Z,4.00
2023-01-05T13:28:54.094Z,3.85
2023-01-05T13:31:52.653Z,4.65
2023-01-05T13:34:23.046Z,3.90
2023-01-05T13:37:15.267Z,3.88
2023-01-05T13:40:06.962Z,4.00
2023-01-05T13:42:40.886Z,4.05
2023-01-05T13:45:38.099Z,3.75
2023-01-05T13:49:04.009Z,4.50
2023-01-05T13:52:04.002Z,3.97
2023-01-05T13:55:01.519Z,4.38
2023-01-05T13:57:43.395Z,4.13
2023-01-05T14:00:29.610Z,4.95
2023-01-05T14:03:22.857Z,4.70
2023-01-05T14:06:00.935Z,4.55
2023-01-05T14:08:39.905Z,4.90
2023-01-05T14:14:20.136Z,5.15
2023-01-05T14:16:49.572Z,5.25
2023-01-05T14:19:33.592Z,5.65
2023-01-05T14:22:24.839Z,5.22
2023-01-05T14:24:54.279Z,5.47
2023-01-05T14:27:25.160Z,7.40
2023-01-05T14:29:52.768Z,7.03
2023-01-05T14:32:26.847Z,8.23
2023-01-05T14:35:30.949Z,6.95
2023-01-05T14:38:02.679Z,7.32
2023-01-05T14:40:46.683Z,7.85
2023-01-05T14:43:22.924Z,8.30
2023-01-05T14:46:18.269Z,8.70
2023-01-05T14:49:02.568Z,9.77
2023-01-05T14:51:33.122Z,8.35
2023-01-05T14:54:04.882Z,7.70
2023-01-05T14:56:36.591Z,8.98
2023-01-05T15:03:48.269Z,23.73
2023-01-05T15:06:45.359Z,8.40
2023-01-05T15:09:44.279Z,9.52
2023-01-05T15:12:36.535Z,10.03
2023-01-05T15:15:31.843Z,11.00
2023-01-05T15:18:14.839Z,10.18
2023-01-05T15:21:28.807Z,12.00
2023-01-05T15:24:18.276Z,11.30
2023-01-05T15:27:28.958Z,10.82
2023-01-05T15:30:40.661Z,11.00
2023-01-05T15:33:23.046Z,11.05
2023-01-05T15:36:01.168Z,10.35
2023-01-05T15:38:30.904Z,11.27
2023-01-05T15:41:13.409Z,10.70
2023-01-05T15:43:42.792Z,11.20
2023-01-05T15:46:12.536Z,12.13
2023-01-05T15:51:30.307Z,14.02
2023-01-05T15:54:04.092Z,13.77
2023-01-05T15:56:36.741Z,12.35
2023-01-05T16:00:05.583Z,11.93
2023-01-05T16:02:58.654Z,12.80
2023-01-05T16:05:34.144Z,12.35
2023-01-05T16:08:14.020Z,12.20
2023-01-05T16:11:01.011Z,13.10
2023-01-05T16:13:43.504Z,12.98
2023-01-05T16:16:54.998Z,13.25
2023-01-05T16:19:38.631Z,13.02
2023-01-05T16:22:17.975Z,12.50
2023-01-05T16:25:21.612Z,13.65
2023-01-05T16:27:58.809Z,13.27
2023-01-05T16:30:57.763Z,13.52
2023-01-05T16:33:40.418Z,13.57
2023-01-05T16:36:28.817Z,13.20
2023-01-05T16:39:24.195Z,14.13
2023-01-05T16:42:55.535Z,13.95
2023-01-05T16:45:35.809Z,13.48
2023-01-05T16:48:23.409Z,16.33
2023-01-05T16:50:56.793Z,15.43
2023-01-05T16:53:25.373Z,15.70
2023-01-05T16:55:55.099Z,16.08
2023-01-05T16:58:40.136Z,16.30
2023-01-05T17:01:59.510Z,15.80
2023-01-05T17:04:27.378Z,18.13
2023-01-05T17:06:58.505Z,15.77
2023-01-05T17:09:33.485Z,17.65
2023-01-05T17:12:01.468Z,18.90
2023-01-05T17:14:29.199Z,18.52
2023-01-05T17:16:57.113Z,17.50
2023-01-05T17:19:27.846Z,18.85
2023-01-05T17:24:28.246Z,19.48
2023-01-05T17:26:56.347Z,18.25
2023-01-05T17:29:27.561Z,18.67
2023-01-05T17:31:56.697Z,19.77
2023-01-05T17:34:24.949Z,22.77
2023-01-05T17:37:00.845Z,18.30
2023-01-05T17:39:28.848Z,19.83
2023-01-05T17:42:16.851Z,18.63
2023-01-05T17:44:45.021Z,19.70
2023-01-05T17:47:12.941Z,19.80
2023-01-05T17:49:40.768Z,18.50
2023-01-05T17:52:09.348Z,18.08
2023-01-05T17:54:40.585Z,17.05
2023-01-05T17:57:14.457Z,16.48
2023-01-05T17:59:49.435Z,15.73
2023-01-05T18:02:17.590Z,14.60
2023-01-05T18:04:45.179Z,15.32
2023-01-05T18:07:13.198Z,16.17
2023-01-05T18:09:40.754Z,16.30
2023-01-05T18:12:10.190Z,14.80
2023-01-05T18:17:06.699Z,17.40
2023-01-05T18:19:34.733Z,17.48
2023-01-05T18:22:02.587Z,15.57
2023-01-05T18:24:30.734Z,17.48
2023-01-05T18:26:58.756Z,16.17
2023-01-05T18:29:26.915Z,14.70
2023-01-05T18:31:55.174Z,16.02
2023-01-05T18:34:23.287Z,15.97
2023-01-05T18:36:58.303Z,16.45
2023-01-05T18:39:33.612Z,16.02
2023-01-05T18:42:01.156Z,15.65
2023-01-05T18:44:29.197Z,14.63
2023-01-05T18:46:57.721Z,14.18
2023-01-05T18:49:25.533Z,16.25
2023-01-05T18:51:53.291Z,15.50
2023-01-05T18:54:21.743Z,14.60
2023-01-05T18:56:49.524Z,15.55
2023-01-05T18:59:17.585Z,14.32
2023-01-05T19:01:45.132Z,14.20
2023-01-05T19:04:15.964Z,14.75
2023-01-05T19:06:43.950Z,15.40
2023-01-05T19:09:14.192Z,15.15
2023-01-05T19:11:47.901Z,16.23
2023-01-05T19:14:18.066Z,16.13
2023-01-05T19:16:49.390Z,18.13
2023-01-05T19:19:19.383Z,17.48
2023-01-05T19:21:47.329Z,19.40
2023-01-05T19:24:20.362Z,18.15
2023-01-05T19:26:49.531Z,16.73
2023-01-05T19:31:48.374Z,18.23
2023-01-05T19:34:19.461Z,16.65
2023-01-05T19:36:48.546Z,17.50
2023-01-05T19:39:19.753Z,15.40
2023-01-05T19:41:51.336Z,17.05
2023-01-05T19:44:21.932Z,17.20
2023-01-05T19:46:52.257Z,17.05
2023-01-05T19:49:26.347Z,17.42
2023-01-05T19:51:54.533Z,15.40
2023-01-05T19:54:24.020Z,15.90
2023-01-05T19:56:52.213Z,15.02
2023-01-05T19:59:24.878Z,13.45
2023-01-05T20:01:53.460Z,14.73
2023-01-05T20:04:21.475Z,13.25
2023-01-05T20:06:49.172Z,12.38
2023-01-05T20:09:19.416Z,11.23
2023-01-05T20:11:54.771Z,11.32
2023-01-05T20:14:32.713Z,10.57
2023-01-05T20:17:08.330Z,9.68
2023-01-05T20:19:38.163Z,10.40
2023-01-05T20:22:11.962Z,9.70
2023-01-05T20:24:40.589Z,9.75
2023-01-05T20:27:13.372Z,8.50
2023-01-05T20:29:41.826Z,7.80
2023-01-05T20:32:15.879Z,8.77
2023-01-05T20:34:49.321Z,7.75
2023-01-05T20:37:16.980Z,11.07
2023-01-05T20:39:45.135Z,8.98
2023-01-05T20:42:14.063Z,7.25
2023-01-05T20:44:46.384Z,7.88
2023-01-05T20:47:15.438Z,6.95
2023-01-05T20:54:43.834Z,8.77
2023-01-05T20:57:11.889Z,9.50
2023-01-05T20:59:40.897Z,9.80
2023-01-05T21:02:22.984Z,13.32
2023-01-05T21:04:53.423Z,10.75
2023-01-05T21:07:22.191Z,13.25
2023-01-05T21:09:51.512Z,14.35
2023-01-05T21:12:20.224Z,12.68
2023-01-05T21:14:48.174Z,15.48
2023-01-05T21:17:16.663Z,13.80
2023-01-05T21:19:44.845Z,14.93
2023-01-05T21:22:12.559Z,15.02
2023-01-05T21:24:41.150Z,13.45
2023-01-05T21:27:08.913Z,15.07
2023-01-05T21:29:36.868Z,13.68
2023-01-05T21:32:04.586Z,15.73
2023-01-05T21:34:32.596Z,15.20
2023-01-05T21:37:00.588Z,13.60
2023-01-05T21:39:28.993Z,12.27
2023-01-05T21:42:15.300Z,13.95
2023-01-05T21:44:43.458Z,13.15
2023-01-05T21:47:11.367Z,11.85
2023-01-05T21:49:40.036Z,13.52
2023-01-05T21:52:28.535Z,14.88
2023-01-05T21:55:15.519Z,14.88
2023-01-05T21:57:43.123Z,13.88
2023-01-05T22:00:12.428Z,15.30
2023-01-05T22:05:08.850Z,11.90
2023-01-05T22:07:36.545Z,12.63
2023-01-05T22:10:05.188Z,12.65
2023-01-05T22:12:32.695Z,15.10
2023-01-05T22:15:00.711Z,13.45
2023-01-05T22:17:28.219Z,13.05
2023-01-05T22:19:56.122Z,13.25
2023-01-05T22:22:23.573Z,12.23
2023-01-05T22:24:51.457Z,9.15
2023-01-05T22:27:19.073Z,12.48
2023-01-05T22:29:47.147Z,12.50
2023-01-05T22:32:14.824Z,12.68
2023-01-05T22:34:44.517Z,13.98
2023-01-05T22:37:12.485Z,13.75
2023-01-05T22:39:40.661Z,15.13
2023-01-05T22:42:08.319Z,14.35
2023-01-05T22:44:36.268Z,15.27
2023-01-05T22:47:03.842Z,13.18
2023-01-05T22:49:31.892Z,14.88
2023-01-05T22:51:59.630Z,16.10
2023-01-05T22:54:27.604Z,18.52
2023-01-05T22:56:55.251Z,17.08
2023-01-05T22:59:23.391Z,18.80
2023-01-05T23:01:51.073Z,19.98
2023-01-05T23:04:19.039Z,17.40
2023-01-05T23:06:47.200Z,19.40
2023-01-05T23:09:16.972Z,20.73
2023-01-05T23:11:46.494Z,21.13
2023-01-05T23:14:17.471Z,19.02
2023-01-05T23:16:47.461Z,16.17
2023-01-05T23:19:17.264Z,14.88
2023-01-05T23:21:45.344Z,17.80
2023-01-05T23:24:13.612Z,16.27
2023-01-05T23:26:41.422Z,15.00
2023-01-05T23:29:09.606Z,15.82
2023-01-05T23:31:37.367Z,14.23
2023-01-05T23:34:05.300Z,13.05
2023-01-05T23:36:33.005Z,13.98
2023-01-05T23:39:01.052Z,12.88
2023-01-05T23:41:28.686Z,13.15
2023-01-05T23:43:56.612Z,12.45
2023-01-05T23:46:24.261Z,13.05
2023-01-05T23:48:53.210Z,10.50
2023-01-05T23:51:21.297Z,11.73
2023-01-05T23:53:53.537Z,11.68
2023-01-05T23:56:26.831Z,11.95
2023-01-05T23:58:59.134Z,10.27
